createdAt,value
2018-04-20T00:00:02.786Z,0
2018-04-20T00:01:03.501Z,0
2018-04-20T00:02:04.216Z,0
2018-04-20T00:03:04.944Z,0
2018-04-20T00:04:05.676Z,0
2018-04-20T00:05:06.393Z,0
2018-04-20T00:06:07.109Z,0
2018-04-20T00:07:07.838Z,0
2018-04-20T00:08:08.553Z,0
2018-04-20T00:09:09.268Z,0
2018-04-20T00:10:09.985Z,0
2018-04-20T00:11:10.713Z,0
2018-04-20T00:12:11.431Z,0
2018-04-20T00:13:12.159Z,0
2018-04-20T00:14:12.876Z,0
2018-04-20T00:15:13.591Z,0
2018-04-20T00:16:14.311Z,0
2018-04-20T00:17:15.036Z,0
2018-04-20T00:18:15.751Z,0
2018-04-20T00:19:16.465Z,0
2018-04-20T00:20:17.195Z,0
2018-04-20T00:21:17.924Z,0
2018-04-20T00:22:18.645Z,0
2018-04-20T00:23:19.359Z,0
2018-04-20T00:24:20.075Z,0
2018-04-20T00:25:20.788Z,0
2018-04-20T00:26:21.540Z,0
2018-04-20T00:27:22.224Z,0
2018-04-20T00:28:22.952Z,0
2018-04-20T00:29:23.667Z,0
2018-04-20T00:30:24.385Z,0
2018-04-20T00:31:25.113Z,0
2018-04-20T00:32:25.840Z,0
2018-04-20T00:33:26.570Z,0
2018-04-20T00:34:27.285Z,0
2018-04-20T00:35:28.000Z,0
2018-04-20T00:36:28.714Z,0
2018-04-20T00:37:29.430Z,0
2018-04-20T00:38:30.145Z,0
2018-04-20T00:39:30.861Z,0
2018-04-20T00:40:31.590Z,0
2018-04-20T00:41:32.318Z,0
2018-04-20T00:42:33.048Z,0
2018-04-20T00:43:33.762Z,0
2018-04-20T00:44:34.490Z,0
2018-04-20T00:45:35.206Z,0
2018-04-20T00:46:35.921Z,0
2018-04-20T00:47:36.638Z,0
2018-04-20T00:48:37.354Z,0
2018-04-20T00:49:38.084Z,0
2018-04-20T00:50:38.796Z,0
2018-04-20T00:51:39.511Z,0
2018-04-20T00:52:40.224Z,0
2018-04-20T00:53:40.941Z,0
2018-04-20T00:54:41.668Z,0
2018-04-20T00:55:42.377Z,0
2018-04-20T00:56:43.096Z,0
2018-04-20T00:57:43.822Z,0
2018-04-20T00:58:44.554Z,0
2018-04-20T00:59:45.275Z,0
2018-04-20T01:00:46.039Z,0
2018-04-20T01:01:46.703Z,0
2018-04-20T01:02:47.420Z,0
2018-04-20T01:03:48.144Z,0
2018-04-20T01:04:48.858Z,0
2018-04-20T01:05:49.570Z,0
2018-04-20T01:06:50.290Z,0
2018-04-20T01:07:50.999Z,0
2018-04-20T01:08:51.714Z,0
2018-04-20T01:09:52.428Z,0
2018-04-20T01:10:53.142Z,0
2018-04-20T01:11:53.855Z,0
2018-04-20T01:12:54.570Z,0
2018-04-20T01:13:55.282Z,0
2018-04-20T01:14:55.997Z,0
2018-04-20T01:15:56.712Z,0
2018-04-20T01:16:57.425Z,0
2018-04-20T01:17:58.139Z,0
2018-04-20T01:18:58.856Z,0
2018-04-20T01:19:59.580Z,0
2018-04-20T01:21:00.297Z,0
2018-04-20T01:22:01.013Z,0
2018-04-20T01:23:01.728Z,0
2018-04-20T01:24:02.454Z,0
2018-04-20T01:25:03.176Z,0
2018-04-20T01:26:03.893Z,0
2018-04-20T01:27:04.608Z,0
2018-04-20T01:28:05.338Z,0
2018-04-20T01:29:06.053Z,0
2018-04-20T01:30:06.772Z,0
2018-04-20T01:31:07.497Z,0
2018-04-20T01:33:23.831Z,0
2018-04-20T01:34:24.558Z,0
2018-04-20T01:35:25.284Z,0
2018-04-20T01:36:26.005Z,0
2018-04-20T01:37:26.740Z,0
2018-04-20T01:38:27.467Z,0
2018-04-20T01:39:28.189Z,0
2018-04-20T01:40:28.915Z,0
2018-04-20T01:41:29.662Z,0
2018-04-20T01:42:30.397Z,0
2018-04-20T01:43:31.123Z,0
2018-04-20T01:44:31.845Z,0
2018-04-20T01:45:32.569Z,0
2018-04-20T01:46:33.371Z,0
2018-04-20T01:47:34.030Z,0
2018-04-20T01:48:34.766Z,0
2018-04-20T01:49:35.502Z,0
2018-04-20T01:50:36.225Z,0
2018-04-20T01:51:36.972Z,0
2018-04-20T01:52:37.707Z,0
2018-04-20T01:53:38.442Z,0
2018-04-20T01:54:39.180Z,0
2018-04-20T01:55:39.933Z,0
2018-04-20T01:56:40.626Z,0
2018-04-20T01:57:41.351Z,0
2018-04-20T01:58:42.085Z,0
2018-04-20T01:59:42.871Z,0
2018-04-20T02:00:43.567Z,0
2018-04-20T02:01:44.302Z,0
2018-04-20T02:02:45.027Z,0
2018-04-20T02:03:45.753Z,0
2018-04-20T02:04:46.477Z,0
2018-04-20T02:05:47.213Z,0
2018-04-20T02:06:47.939Z,0
2018-04-20T02:07:48.674Z,0
2018-04-20T02:08:49.411Z,0
2018-04-20T02:09:50.137Z,0
2018-04-20T02:10:50.896Z,0
2018-04-20T02:11:51.633Z,0
2018-04-20T02:12:52.391Z,0
2018-04-20T02:13:53.117Z,0
2018-04-20T02:14:53.855Z,0
2018-04-20T02:15:54.586Z,0
2018-04-20T02:16:55.331Z,0
2018-04-20T02:17:56.055Z,0
2018-04-20T02:18:56.780Z,0
2018-04-20T02:19:57.505Z,0
2018-04-20T02:20:58.230Z,0
2018-04-20T02:21:58.989Z,0
2018-04-20T02:22:59.746Z,0
2018-04-20T02:24:00.487Z,0
2018-04-20T02:25:01.217Z,0
2018-04-20T02:26:01.952Z,0
2018-04-20T02:27:02.689Z,0
2018-04-20T02:28:03.447Z,0
2018-04-20T02:29:04.181Z,0
2018-04-20T02:30:04.908Z,0
2018-04-20T02:31:05.643Z,0
2018-04-20T02:32:06.366Z,0
2018-04-20T02:33:07.100Z,0
2018-04-20T02:34:07.870Z,0
2018-04-20T02:35:08.610Z,0
2018-04-20T02:36:09.330Z,0
2018-04-20T02:37:10.066Z,0
2018-04-20T02:38:10.839Z,0
2018-04-20T02:39:11.571Z,0
2018-04-20T02:40:12.328Z,0
2018-04-20T02:41:13.078Z,0
2018-04-20T02:42:13.823Z,0
2018-04-20T02:43:14.558Z,0
2018-04-20T02:44:15.280Z,0
2018-04-20T02:45:16.006Z,0
2018-04-20T02:46:16.729Z,0
2018-04-20T02:47:17.466Z,0
2018-04-20T02:48:18.224Z,0
2018-04-20T02:49:18.947Z,0
2018-04-20T02:50:19.672Z,0
2018-04-20T02:51:20.396Z,0
2018-04-20T02:52:21.118Z,0
2018-04-20T02:53:21.842Z,0
2018-04-20T02:54:22.599Z,0
2018-04-20T02:55:23.356Z,0
2018-04-20T02:56:24.085Z,0
2018-04-20T02:57:24.808Z,0
2018-04-20T02:58:25.531Z,0
2018-04-20T02:59:26.279Z,0
2018-04-20T03:00:27.025Z,0
2018-04-20T03:01:27.748Z,0
2018-04-20T03:02:28.475Z,0
2018-04-20T03:03:29.199Z,0
2018-04-20T03:04:29.929Z,0
2018-04-20T03:05:30.668Z,0
2018-04-20T03:06:31.415Z,0
2018-04-20T03:07:32.149Z,0
2018-04-20T03:08:32.884Z,0
2018-04-20T03:09:33.609Z,0
2018-04-20T03:10:34.372Z,0
2018-04-20T03:11:35.078Z,0
2018-04-20T03:12:35.836Z,0
2018-04-20T03:13:36.582Z,0
2018-04-20T03:14:37.306Z,0
2018-04-20T03:15:38.052Z,0
2018-04-20T03:16:38.799Z,0
2018-04-20T03:17:39.523Z,0
2018-04-20T03:18:40.249Z,0
2018-04-20T03:19:41.011Z,0
2018-04-20T03:20:41.735Z,0
2018-04-20T03:21:42.458Z,0
2018-04-20T03:22:43.178Z,0
2018-04-20T03:23:43.937Z,0
2018-04-20T03:24:44.693Z,0
2018-04-20T03:25:45.416Z,0
2018-04-20T03:26:46.141Z,0
2018-04-20T03:27:46.877Z,0
2018-04-20T03:28:47.613Z,0
2018-04-20T03:29:48.337Z,0
2018-04-20T03:30:49.074Z,0
2018-04-20T03:31:49.832Z,0
2018-04-20T03:32:50.519Z,0
2018-04-20T03:33:51.250Z,0
2018-04-20T03:34:51.970Z,0
2018-04-20T03:35:52.694Z,0
2018-04-20T03:36:53.427Z,0
2018-04-20T03:37:54.186Z,0
2018-04-20T03:38:54.920Z,0
2018-04-20T03:39:55.655Z,0
2018-04-20T03:40:56.424Z,0
2018-04-20T03:41:57.193Z,0
2018-04-20T03:42:57.915Z,0
2018-04-20T03:43:58.642Z,0
2018-04-20T03:44:59.388Z,0
2018-04-20T03:46:00.133Z,0
2018-04-20T03:47:00.870Z,0
2018-04-20T03:48:01.594Z,0
2018-04-20T03:49:02.316Z,0
2018-04-20T03:50:03.064Z,0
2018-04-20T03:51:03.792Z,4
2018-04-20T03:52:04.533Z,4
2018-04-20T03:53:05.268Z,0
2018-04-20T03:54:05.990Z,4
2018-04-20T03:55:06.754Z,4
2018-04-20T03:56:07.483Z,4
2018-04-20T03:57:08.243Z,4
2018-04-20T03:58:08.978Z,4
2018-04-20T03:59:09.750Z,8
2018-04-20T04:00:10.471Z,8
2018-04-20T04:01:11.206Z,8
2018-04-20T04:02:11.929Z,8
2018-04-20T04:03:12.656Z,12
2018-04-20T04:04:13.391Z,12
2018-04-20T04:05:14.116Z,12
2018-04-20T04:06:14.853Z,20
2018-04-20T04:07:15.589Z,20
2018-04-20T04:08:16.348Z,24
2018-04-20T04:09:17.074Z,28
2018-04-20T04:10:17.835Z,32
2018-04-20T04:11:18.571Z,36
2018-04-20T04:12:19.334Z,44
2018-04-20T04:13:20.083Z,48
2018-04-20T04:14:20.809Z,52
2018-04-20T04:15:21.535Z,60
2018-04-20T04:16:22.261Z,68
2018-04-20T04:17:23.019Z,72
2018-04-20T04:18:23.756Z,84
2018-04-20T04:19:24.515Z,92
2018-04-20T04:20:25.252Z,96
2018-04-20T04:21:25.977Z,108
2018-04-20T04:22:26.714Z,120
2018-04-20T04:23:27.455Z,132
2018-04-20T04:24:28.205Z,144
2018-04-20T04:25:28.931Z,156
2018-04-20T04:26:29.667Z,168
2018-04-20T04:27:30.403Z,188
2018-04-20T04:28:31.141Z,200
2018-04-20T04:29:31.882Z,216
2018-04-20T04:30:32.608Z,232
2018-04-20T04:31:33.349Z,252
2018-04-20T04:32:34.101Z,272
2018-04-20T04:33:34.862Z,292
2018-04-20T04:34:35.590Z,316
2018-04-20T04:35:36.320Z,336
2018-04-20T04:36:37.045Z,360
2018-04-20T04:37:37.769Z,384
2018-04-20T04:38:38.529Z,404
2018-04-20T04:39:39.256Z,436
2018-04-20T04:40:39.985Z,460
2018-04-20T04:41:40.711Z,488
2018-04-20T04:42:41.470Z,516
2018-04-20T04:43:42.222Z,544
2018-04-20T04:44:42.950Z,572
2018-04-20T04:45:43.703Z,600
2018-04-20T04:46:44.459Z,632
2018-04-20T04:47:45.200Z,668
2018-04-20T04:48:45.966Z,704
2018-04-20T04:49:46.688Z,744
2018-04-20T04:50:47.416Z,776
2018-04-20T04:51:48.142Z,808
2018-04-20T04:52:48.869Z,840
2018-04-20T04:53:49.620Z,872
2018-04-20T04:54:50.347Z,908
2018-04-20T04:55:51.106Z,948
2018-04-20T04:56:51.832Z,980
2018-04-20T04:57:52.585Z,1016
2018-04-20T04:58:53.314Z,1048
2018-04-20T04:59:54.066Z,1080
2018-04-20T05:00:54.793Z,1112
2018-04-20T05:01:55.521Z,1140
2018-04-20T05:02:56.251Z,1168
2018-04-20T05:03:57.005Z,1200
2018-04-20T05:04:57.733Z,1232
2018-04-20T05:05:58.464Z,1268
2018-04-20T05:06:59.193Z,1312
2018-04-20T05:07:59.928Z,1352
2018-04-20T05:09:00.653Z,1396
2018-04-20T05:10:01.381Z,1432
2018-04-20T05:11:02.132Z,1476
2018-04-20T05:12:02.873Z,1508
2018-04-20T05:13:03.604Z,1540
2018-04-20T05:14:04.346Z,1572
2018-04-20T05:15:05.119Z,1604
2018-04-20T05:16:05.847Z,1640
2018-04-20T05:17:06.614Z,1680
2018-04-20T05:18:07.368Z,1720
2018-04-20T05:19:08.121Z,1764
2018-04-20T05:20:08.874Z,1804
2018-04-20T05:21:09.604Z,1840
2018-04-20T05:22:10.330Z,1880
2018-04-20T05:23:11.071Z,1916
2018-04-20T05:24:11.800Z,1952
2018-04-20T05:25:12.528Z,1992
2018-04-20T05:26:13.279Z,2032
2018-04-20T05:27:14.018Z,2064
2018-04-20T05:28:14.759Z,2100
2018-04-20T05:29:15.521Z,2140
2018-04-20T05:30:16.270Z,2176
2018-04-20T05:31:17.032Z,2208
2018-04-20T05:32:17.773Z,2244
2018-04-20T05:33:18.535Z,2284
2018-04-20T05:34:19.298Z,2316
2018-04-20T05:35:20.025Z,2356
2018-04-20T05:36:20.764Z,2388
2018-04-20T05:37:21.492Z,2428
2018-04-20T05:38:22.232Z,2464
2018-04-20T05:39:22.962Z,2508
2018-04-20T05:40:23.689Z,2548
2018-04-20T05:41:24.419Z,2588
2018-04-20T05:42:25.146Z,2632
2018-04-20T05:43:25.877Z,2668
2018-04-20T05:44:26.614Z,2708
2018-04-20T05:45:27.344Z,2752
2018-04-20T05:46:28.106Z,2780
2018-04-20T05:47:28.835Z,2816
2018-04-20T05:48:29.565Z,2852
2018-04-20T05:49:30.321Z,2884
2018-04-20T05:50:31.060Z,2924
2018-04-20T05:51:31.787Z,2968
2018-04-20T05:52:32.539Z,3024
2018-04-20T05:53:33.267Z,3076
2018-04-20T05:54:34.017Z,3144
2018-04-20T05:55:34.773Z,3200
2018-04-20T05:56:35.498Z,3252
2018-04-20T05:57:36.240Z,3292
2018-04-20T05:58:36.980Z,3328
2018-04-20T05:59:37.715Z,3372
2018-04-20T06:00:38.442Z,3416
2018-04-20T06:01:39.172Z,3452
2018-04-20T06:02:39.913Z,3508
2018-04-20T06:03:40.643Z,3552
2018-04-20T06:04:41.371Z,3584
2018-04-20T06:05:42.122Z,3640
2018-04-20T06:06:42.854Z,3688
2018-04-20T06:07:43.584Z,3756
2018-04-20T06:08:44.315Z,3816
2018-04-20T06:09:45.046Z,3868
2018-04-20T06:10:45.797Z,3912
2018-04-20T06:11:46.531Z,3956
2018-04-20T06:12:47.269Z,4000
2018-04-20T06:13:47.998Z,4036
2018-04-20T06:14:48.727Z,4084
2018-04-20T06:15:49.470Z,4140
2018-04-20T06:16:50.215Z,4200
2018-04-20T06:17:51.056Z,4276
2018-04-20T06:18:51.728Z,4332
2018-04-20T06:19:52.456Z,4380
2018-04-20T06:20:53.186Z,4432
2018-04-20T06:21:53.918Z,4492
2018-04-20T06:22:54.659Z,4560
2018-04-20T06:23:55.424Z,4652
2018-04-20T06:24:56.153Z,4744
2018-04-20T06:25:56.885Z,4868
2018-04-20T06:26:57.629Z,5020
2018-04-20T06:27:58.361Z,5196
2018-04-20T06:28:59.101Z,5384
2018-04-20T06:29:59.860Z,5592
2018-04-20T06:31:00.604Z,5816
2018-04-20T06:32:01.338Z,6020
2018-04-20T06:33:02.068Z,6168
2018-04-20T06:34:02.811Z,6284
2018-04-20T06:35:03.555Z,6404
2018-04-20T06:36:04.322Z,6516
2018-04-20T06:37:05.060Z,6632
2018-04-20T06:38:05.813Z,6724
2018-04-20T06:39:06.547Z,6828
2018-04-20T06:40:07.296Z,6972
2018-04-20T06:41:08.060Z,7172
2018-04-20T06:42:08.796Z,7444
2018-04-20T06:43:09.533Z,8108
2018-04-20T06:44:10.265Z,11124
2018-04-20T06:45:11.001Z,14912
2018-04-20T06:46:11.763Z,14240
2018-04-20T06:47:12.513Z,10576
2018-04-20T06:48:13.249Z,8316
2018-04-20T06:49:14.008Z,8208
2018-04-20T06:50:14.745Z,8620
2018-04-20T06:51:15.483Z,10344
2018-04-20T06:52:16.225Z,14560
2018-04-20T06:53:16.976Z,18432
2018-04-20T06:54:17.748Z,20192
2018-04-20T06:55:18.487Z,19936
2018-04-20T06:56:19.225Z,20448
2018-04-20T06:57:19.989Z,21760
2018-04-20T06:58:20.734Z,22752
2018-04-20T06:59:21.490Z,23168
2018-04-20T07:00:22.232Z,23744
2018-04-20T07:01:22.975Z,22912
2018-04-20T07:02:23.732Z,23072
2018-04-20T07:03:24.475Z,23648
2018-04-20T07:04:25.210Z,24192
2018-04-20T07:05:25.964Z,24576
2018-04-20T07:06:26.703Z,24480
2018-04-20T07:07:27.444Z,24544
2018-04-20T07:08:28.205Z,25696
2018-04-20T07:09:28.978Z,26592
2018-04-20T07:10:29.712Z,26656
2018-04-20T07:11:30.452Z,26976
2018-04-20T07:12:31.211Z,26848
2018-04-20T07:13:31.960Z,27008
2018-04-20T07:14:32.708Z,27200
2018-04-20T07:15:33.445Z,27680
2018-04-20T07:16:34.202Z,27968
2018-04-20T07:17:34.943Z,28608
2018-04-20T07:18:35.678Z,29312
2018-04-20T07:19:36.417Z,29632
2018-04-20T07:20:37.154Z,29856
2018-04-20T07:21:37.917Z,29152
2018-04-20T07:22:38.666Z,28448
2018-04-20T07:23:39.414Z,28768
2018-04-20T07:24:40.152Z,29856
2018-04-20T07:25:40.922Z,31488
2018-04-20T07:26:41.705Z,32128
2018-04-20T07:27:42.476Z,32064
2018-04-20T07:28:43.218Z,32608
2018-04-20T07:29:43.957Z,33120
2018-04-20T07:30:44.695Z,33248
2018-04-20T07:31:45.444Z,33760
2018-04-20T07:32:46.185Z,34560
2018-04-20T07:33:46.935Z,33920
2018-04-20T07:34:47.674Z,34976
2018-04-20T07:35:48.413Z,35040
2018-04-20T07:36:49.152Z,35136
2018-04-20T07:37:49.918Z,35296
2018-04-20T07:38:50.678Z,35360
2018-04-20T07:39:51.431Z,36320
2018-04-20T07:40:52.183Z,36896
2018-04-20T07:41:52.958Z,37440
2018-04-20T07:42:53.698Z,36992
2018-04-20T07:43:54.438Z,36448
2018-04-20T07:44:55.180Z,36864
2018-04-20T07:45:55.945Z,37536
2018-04-20T07:46:56.688Z,38592
2018-04-20T07:47:57.426Z,39072
2018-04-20T07:48:58.170Z,39616
2018-04-20T07:49:58.917Z,38432
2018-04-20T07:50:59.676Z,37440
2018-04-20T07:52:00.410Z,30336
2018-04-20T07:53:01.164Z,18656
2018-04-20T07:54:01.914Z,15196
2018-04-20T07:55:02.669Z,14388
2018-04-20T07:56:03.412Z,14036
2018-04-20T07:57:04.171Z,13860
2018-04-20T07:58:04.943Z,13772
2018-04-20T07:59:05.712Z,13704
2018-04-20T08:00:06.462Z,13684
2018-04-20T08:01:07.205Z,13680
2018-04-20T08:02:07.944Z,13724
2018-04-20T08:03:08.706Z,13804
2018-04-20T08:04:09.450Z,13860
2018-04-20T08:05:10.206Z,13944
2018-04-20T08:06:10.994Z,14052
2018-04-20T08:07:11.741Z,14156
2018-04-20T08:08:12.499Z,14332
2018-04-20T08:09:13.229Z,14376
2018-04-20T08:10:13.996Z,14624
2018-04-20T08:11:14.743Z,14788
2018-04-20T08:12:15.497Z,14984
2018-04-20T08:13:16.243Z,15332
2018-04-20T08:14:16.985Z,15892
2018-04-20T08:15:17.732Z,17248
2018-04-20T08:16:18.482Z,25792
2018-04-20T08:17:19.225Z,40512
2018-04-20T08:18:19.970Z,47648
2018-04-20T08:19:20.741Z,48000
2018-04-20T08:20:21.485Z,49248
2018-04-20T08:21:22.253Z,50528
2018-04-20T08:22:23.030Z,50464
2018-04-20T08:23:23.821Z,52672
2018-04-20T08:24:24.574Z,52000
2018-04-20T08:25:25.315Z,51328
2018-04-20T08:26:26.072Z,51744
2018-04-20T08:27:26.816Z,52864
2018-04-20T08:28:27.608Z,53216
2018-04-20T08:29:28.321Z,53600
2018-04-20T08:30:29.074Z,53984
2018-04-20T08:31:29.822Z,53344
2018-04-20T08:32:30.580Z,51264
2018-04-20T08:33:31.357Z,53888
2018-04-20T08:34:32.101Z,54464
2018-04-20T08:35:32.860Z,53984
2018-04-20T08:36:33.651Z,55296
2018-04-20T08:37:34.398Z,56000
2018-04-20T08:38:35.147Z,55488
2018-04-20T08:39:35.893Z,56128
2018-04-20T08:40:36.636Z,55136
2018-04-20T08:41:37.394Z,54560
2018-04-20T08:42:38.189Z,55488
2018-04-20T08:43:38.939Z,55360
2018-04-20T08:44:39.690Z,53120
2018-04-20T08:45:40.439Z,52960
2018-04-20T08:46:41.186Z,53696
2018-04-20T08:47:41.936Z,55104
2018-04-20T08:48:42.712Z,54624
2018-04-20T08:49:43.477Z,55136
2018-04-20T08:50:44.228Z,53952
2018-04-20T08:51:44.981Z,53792
2018-04-20T08:52:45.766Z,54272
2018-04-20T08:53:46.567Z,54752
2018-04-20T08:54:47.321Z,55584
2018-04-20T08:55:48.104Z,55360
2018-04-20T08:56:48.866Z,54688
2018-04-20T08:57:49.623Z,54656
2018-04-20T08:58:50.374Z,54016
2018-04-20T08:59:51.151Z,54976
2018-04-20T09:00:51.906Z,57088
2018-04-20T09:01:52.667Z,58496
2018-04-20T09:02:53.418Z,57856
2018-04-20T09:03:54.182Z,57568
2018-04-20T09:04:54.931Z,59936
2018-04-20T09:05:55.698Z,59776
2018-04-20T09:06:56.447Z,60896
2018-04-20T09:07:57.206Z,60160
2018-04-20T09:08:57.968Z,58112
2018-04-20T09:09:58.718Z,59424
2018-04-20T09:10:59.476Z,59200
2018-04-20T09:12:00.228Z,57312
2018-04-20T09:13:00.992Z,57888
2018-04-20T09:14:01.757Z,58496
2018-04-20T09:15:02.508Z,58496
2018-04-20T09:16:03.264Z,59584
2018-04-20T09:17:04.021Z,59648
2018-04-20T09:18:04.770Z,59264
2018-04-20T09:19:05.525Z,58496
2018-04-20T09:20:06.275Z,59456
2018-04-20T09:21:07.038Z,57920
2018-04-20T09:22:07.802Z,62208
2018-04-20T09:23:08.560Z,61120
2018-04-20T09:24:09.320Z,61088
2018-04-20T09:25:10.071Z,57920
2018-04-20T09:26:10.832Z,62816
2018-04-20T09:27:11.585Z,61984
2018-04-20T09:28:12.351Z,64576
2018-04-20T09:29:13.104Z,66432
2018-04-20T09:30:13.857Z,68288
2018-04-20T09:31:14.610Z,69344
2018-04-20T09:32:15.364Z,68064
2018-04-20T09:33:16.128Z,69472
2018-04-20T09:34:16.892Z,68992
2018-04-20T09:35:17.646Z,66400
2018-04-20T09:36:18.424Z,67648
2018-04-20T09:37:19.180Z,64384
2018-04-20T09:38:19.934Z,66432
2018-04-20T09:39:20.699Z,63808
2018-04-20T09:40:21.464Z,60512
2018-04-20T09:41:22.217Z,65376
2018-04-20T09:42:22.980Z,67712
2018-04-20T09:43:23.745Z,69952
2018-04-20T09:44:24.540Z,67456
2018-04-20T09:45:25.301Z,67616
2018-04-20T09:46:26.053Z,68992
2018-04-20T09:47:26.814Z,68576
2018-04-20T09:48:27.610Z,68512
2018-04-20T09:49:28.370Z,69984
2018-04-20T09:50:29.129Z,69632
2018-04-20T09:51:29.922Z,68416
2018-04-20T09:52:30.648Z,71936
2018-04-20T09:53:31.429Z,68800
2018-04-20T09:54:32.190Z,68128
2018-04-20T09:55:32.952Z,70208
2018-04-20T09:56:33.715Z,69056
2018-04-20T09:57:34.471Z,70368
2018-04-20T09:58:35.235Z,71392
2018-04-20T09:59:35.998Z,73056
2018-04-20T10:00:36.749Z,71296
2018-04-20T10:01:37.499Z,72832
2018-04-20T10:02:38.284Z,75680
2018-04-20T10:03:39.036Z,74272
2018-04-20T10:04:39.795Z,68480
2018-04-20T10:05:40.562Z,73024
2018-04-20T10:06:41.315Z,67616
2018-04-20T10:07:42.134Z,66624
2018-04-20T10:08:42.852Z,69152
2018-04-20T10:09:43.623Z,66784
2018-04-20T10:10:44.376Z,69760
2018-04-20T10:11:45.126Z,69984
2018-04-20T10:12:45.888Z,75104
2018-04-20T10:13:46.634Z,77152
2018-04-20T10:14:47.383Z,77856
2018-04-20T10:15:48.131Z,77184
2018-04-20T10:16:48.878Z,78400
2018-04-20T10:17:49.631Z,77856
2018-04-20T10:18:50.390Z,79424
2018-04-20T10:19:51.156Z,76000
2018-04-20T10:20:51.903Z,76768
2018-04-20T10:21:52.654Z,76064
2018-04-20T10:22:53.415Z,74336
2018-04-20T10:23:54.175Z,73504
2018-04-20T10:24:54.927Z,76544
2018-04-20T10:25:55.687Z,75872
2018-04-20T10:26:56.434Z,76768
2018-04-20T10:27:57.185Z,76448
2018-04-20T10:28:57.937Z,74176
2018-04-20T10:29:58.686Z,76448
2018-04-20T10:30:59.438Z,76480
2018-04-20T10:32:00.212Z,76960
2018-04-20T10:33:00.952Z,78016
2018-04-20T10:34:01.705Z,76608
2018-04-20T10:35:02.485Z,75040
2018-04-20T10:36:03.236Z,74592
2018-04-20T10:37:03.986Z,78272
2018-04-20T10:38:04.772Z,77120
2018-04-20T10:39:05.556Z,77920
2018-04-20T10:40:06.305Z,78688
2018-04-20T10:41:07.069Z,76416
2018-04-20T10:42:07.814Z,78624
2018-04-20T10:43:08.572Z,79424
2018-04-20T10:44:09.341Z,78848
2018-04-20T10:45:10.114Z,78336
2018-04-20T10:46:10.865Z,77664
2018-04-20T10:47:11.618Z,77184
2018-04-20T10:48:12.376Z,79200
2018-04-20T10:49:13.118Z,80928
2018-04-20T10:50:13.880Z,80256
2018-04-20T10:51:14.626Z,81504
2018-04-20T10:52:15.400Z,83264
2018-04-20T10:53:16.163Z,80928
2018-04-20T10:54:16.949Z,80992
2018-04-20T10:55:17.695Z,83424
2018-04-20T10:56:18.470Z,82432
2018-04-20T10:57:19.232Z,78464
2018-04-20T10:58:19.981Z,79072
2018-04-20T10:59:20.742Z,83360
2018-04-20T11:00:21.527Z,81344
2018-04-20T11:01:22.278Z,79584
2018-04-20T11:02:23.039Z,80192
2018-04-20T11:03:23.881Z,82944
2018-04-20T11:04:24.579Z,78272
2018-04-20T11:05:25.330Z,81216
2018-04-20T11:06:26.104Z,81056
2018-04-20T11:07:26.855Z,78848
2018-04-20T11:08:27.637Z,78656
2018-04-20T11:09:28.386Z,80928
2018-04-20T11:10:29.134Z,81376
2018-04-20T11:11:29.930Z,79296
2018-04-20T11:12:30.632Z,82080
2018-04-20T11:13:31.383Z,82592
2018-04-20T11:14:32.145Z,79040
2018-04-20T11:15:32.922Z,79840
2018-04-20T11:16:33.674Z,81248
2018-04-20T11:17:34.435Z,77440
2018-04-20T11:18:35.196Z,76896
2018-04-20T11:19:35.979Z,78368
2018-04-20T11:20:36.732Z,74304
2018-04-20T11:21:37.481Z,76928
2018-04-20T11:22:38.266Z,77344
2018-04-20T11:23:39.020Z,74528
2018-04-20T11:24:39.763Z,76032
2018-04-20T11:25:40.514Z,77440
2018-04-20T11:26:41.265Z,76448
2018-04-20T11:27:42.046Z,75648
2018-04-20T11:28:42.796Z,75424
2018-04-20T11:29:43.542Z,73088
2018-04-20T11:30:44.292Z,74784
2018-04-20T11:31:45.040Z,75232
2018-04-20T11:32:45.823Z,72576
2018-04-20T11:33:46.574Z,76256
2018-04-20T11:34:47.335Z,77024
2018-04-20T11:35:48.084Z,76576
2018-04-20T11:36:48.867Z,77696
2018-04-20T11:37:49.616Z,76416
2018-04-20T11:38:50.375Z,76736
2018-04-20T11:39:51.124Z,76192
2018-04-20T11:40:51.870Z,74176
2018-04-20T11:41:52.618Z,74368
2018-04-20T11:42:53.381Z,71584
2018-04-20T11:43:54.128Z,71040
2018-04-20T11:44:54.879Z,70432
2018-04-20T11:45:55.653Z,66400
2018-04-20T11:46:56.412Z,65344
2018-04-20T11:47:57.161Z,69760
2018-04-20T11:48:57.912Z,73888
2018-04-20T11:49:58.664Z,70880
2018-04-20T11:50:59.429Z,68864
2018-04-20T11:52:00.177Z,71456
2018-04-20T11:53:00.924Z,72160
2018-04-20T11:54:01.731Z,69664
2018-04-20T11:55:02.431Z,70976
2018-04-20T11:56:03.212Z,72704
2018-04-20T11:57:03.996Z,71488
2018-04-20T11:58:04.753Z,71776
2018-04-20T11:59:05.500Z,70528
2018-04-20T12:00:06.259Z,65632
2018-04-20T12:01:07.008Z,70944
2018-04-20T12:02:07.760Z,69440
2018-04-20T12:03:08.516Z,62784
2018-04-20T12:04:09.275Z,68448
2018-04-20T12:05:10.022Z,71712
2018-04-20T12:06:10.794Z,72640
2018-04-20T12:07:11.544Z,70752
2018-04-20T12:08:12.316Z,70688
2018-04-20T12:09:13.072Z,70880
2018-04-20T12:10:13.832Z,66112
2018-04-20T12:11:14.614Z,69664
2018-04-20T12:12:15.396Z,67136
2018-04-20T12:13:16.157Z,64288
2018-04-20T12:14:16.908Z,66464
2018-04-20T12:15:17.653Z,68288
2018-04-20T12:16:18.400Z,68896
2018-04-20T12:17:19.152Z,66752
2018-04-20T12:18:19.898Z,70016
2018-04-20T12:19:20.645Z,68992
2018-04-20T12:20:21.394Z,68288
2018-04-20T12:21:22.173Z,70528
2018-04-20T12:22:22.900Z,71040
2018-04-20T12:23:23.643Z,67424
2018-04-20T12:24:24.393Z,65472
2018-04-20T12:25:25.141Z,66528
2018-04-20T12:26:25.901Z,69568
2018-04-20T12:27:26.666Z,68448
2018-04-20T12:28:27.400Z,70528
2018-04-20T12:29:28.157Z,69312
2018-04-20T12:30:28.907Z,70080
2018-04-20T12:31:29.704Z,70432
2018-04-20T12:32:30.401Z,72672
2018-04-20T12:33:31.166Z,71616
2018-04-20T12:34:31.897Z,67104
2018-04-20T12:35:32.645Z,63712
2018-04-20T12:36:33.409Z,63360
2018-04-20T12:37:34.158Z,60864
2018-04-20T12:38:34.916Z,59680
2018-04-20T12:39:35.663Z,50912
2018-04-20T12:40:36.410Z,20736
2018-04-20T12:41:37.160Z,57056
2018-04-20T12:42:37.908Z,66112
2018-04-20T12:43:38.672Z,67904
2018-04-20T12:44:39.703Z,18432
2018-04-20T12:45:40.464Z,55200
2018-04-20T12:46:41.223Z,70400
2018-04-20T12:47:42.013Z,72448
2018-04-20T12:48:42.746Z,70976
2018-04-20T12:49:43.506Z,70272
2018-04-20T12:50:44.252Z,66688
2018-04-20T12:51:45.000Z,65216
2018-04-20T12:52:45.808Z,62112
2018-04-20T12:53:46.568Z,58272
2018-04-20T12:54:47.318Z,60096
2018-04-20T12:55:48.070Z,60096
2018-04-20T12:56:48.825Z,60480
2018-04-20T12:57:49.572Z,58880
2018-04-20T12:58:50.321Z,58400
2018-04-20T12:59:51.070Z,57184
2018-04-20T13:00:51.831Z,56832
2018-04-20T13:01:52.579Z,60224
2018-04-20T13:02:53.357Z,62176
2018-04-20T13:03:54.126Z,63616
2018-04-20T13:04:54.910Z,59936
2018-04-20T13:05:55.658Z,60672
2018-04-20T13:06:56.440Z,59552
2018-04-20T13:07:57.188Z,57920
2018-04-20T13:08:57.960Z,59200
2018-04-20T13:09:58.710Z,57760
2018-04-20T13:10:59.482Z,58688
2018-04-20T13:12:00.243Z,58080
2018-04-20T13:13:00.991Z,57728
2018-04-20T13:14:01.753Z,57760
2018-04-20T13:15:02.544Z,58720
2018-04-20T13:16:03.297Z,57248
2018-04-20T13:17:04.039Z,56608
2018-04-20T13:18:04.788Z,56896
2018-04-20T13:19:05.534Z,53472
2018-04-20T13:20:06.339Z,54784
2018-04-20T13:21:07.047Z,53920
2018-04-20T13:22:07.817Z,52480
2018-04-20T13:23:08.579Z,59104
2018-04-20T13:24:09.338Z,56128
2018-04-20T13:25:10.096Z,53216
2018-04-20T13:26:10.858Z,60096
2018-04-20T13:27:11.650Z,56736
2018-04-20T13:28:12.403Z,56512
2018-04-20T13:29:13.175Z,55008
2018-04-20T13:30:13.935Z,55712
2018-04-20T13:31:14.703Z,55712
2018-04-20T13:32:15.447Z,52448
2018-04-20T13:33:16.202Z,54944
2018-04-20T13:34:16.959Z,54144
2018-04-20T13:35:17.745Z,51104
2018-04-20T13:36:18.506Z,52768
2018-04-20T13:37:19.261Z,51200
2018-04-20T13:38:20.043Z,52160
2018-04-20T13:39:20.791Z,51936
2018-04-20T13:40:21.574Z,52192
2018-04-20T13:41:22.320Z,51360
2018-04-20T13:42:23.069Z,50816